sensor_id;sensor_type;location;lat;lon;timestamp;pressure;altitude;pressure_sealevel;temperature;humidity
45941;BME280;31858;46.008;8.978;2023-02-04T00:07:11;94809.84;;;13.54;36.59
45941;BME280;31858;46.008;8.978;2023-02-04T00:17:14;94790.72;;;13.62;36.21
45941;BME280;31858;46.008;8.978;2023-02-04T00:27:16;94809.47;;;13.59;36.02
45941;BME280;31858;46.008;8.978;2023-02-04T00:37:19;94783.44;;;13.66;35.66
45941;BME280;31858;46.008;8.978;2023-02-04T00:47:20;94799.50;;;13.77;35.39
45941;BME280;31858;46.008;8.978;2023-02-04T00:57:23;94765.88;;;13.58;35.94
45941;BME280;31858;46.008;8.978;2023-02-04T01:07:25;94748.66;;;13.45;36.57
45941;BME280;31858;46.008;8.978;2023-02-04T01:17:28;94740.25;;;13.25;36.99
45941;BME280;31858;46.008;8.978;2023-02-04T01:27:29;94732.56;;;13.02;37.76
45941;BME280;31858;46.008;8.978;2023-02-04T01:37:32;94739.47;;;12.96;37.95
45941;BME280;31858;46.008;8.978;2023-02-04T01:47:34;94737.94;;;12.81;38.54
45941;BME280;31858;46.008;8.978;2023-02-04T01:57:37;94746.34;;;12.97;39.20
45941;BME280;31858;46.008;8.978;2023-02-04T02:07:39;94729.91;;;12.88;39.69
45941;BME280;31858;46.008;8.978;2023-02-04T02:17:43;94731.44;;;12.75;39.97
45941;BME280;31858;46.008;8.978;2023-02-04T02:27:46;94683.31;;;12.75;40.72
45941;BME280;31858;46.008;8.978;2023-02-04T02:37:48;94691.34;;;12.93;40.96
45941;BME280;31858;46.008;8.978;2023-02-04T02:47:51;94687.50;;;13.08;41.03
45941;BME280;31858;46.008;8.978;2023-02-04T02:57:54;94694.75;;;13.00;41.22
45941;BME280;31858;46.008;8.978;2023-02-04T03:07:58;94706.25;;;12.90;41.85
45941;BME280;31858;46.008;8.978;2023-02-04T03:18:00;94703.16;;;12.78;42.11
45941;BME280;31858;46.008;8.978;2023-02-04T03:28:04;94695.53;;;12.72;42.46
45941;BME280;31858;46.008;8.978;2023-02-04T03:38:06;94694.75;;;12.72;42.31
45941;BME280;31858;46.008;8.978;2023-02-04T03:48:09;94695.13;;;12.74;42.00
45941;BME280;31858;46.008;8.978;2023-02-04T03:58:10;94650.78;;;13.12;40.75
45941;BME280;31858;46.008;8.978;2023-02-04T04:08:13;94696.69;;;13.18;40.39
45941;BME280;31858;46.008;8.978;2023-02-04T04:18:15;94679.88;;;13.24;39.65
45941;BME280;31858;46.008;8.978;2023-02-04T04:28:18;94671.03;;;13.56;38.45
45941;BME280;31858;46.008;8.978;2023-02-04T04:38:20;94641.53;;;13.70;38.25
45941;BME280;31858;46.008;8.978;2023-02-04T04:48:22;94652.09;;;14.09;37.11
45941;BME280;31858;46.008;8.978;2023-02-04T04:58:24;94670.38;;;14.28;36.75
45941;BME280;31858;46.008;8.978;2023-02-04T05:08:27;94674.50;;;14.36;36.52
45941;BME280;31858;46.008;8.978;2023-02-04T05:18:29;94685.31;;;14.22;36.87
45941;BME280;31858;46.008;8.978;2023-02-04T05:28:32;94698.44;;;13.95;37.05
45941;BME280;31858;46.008;8.978;2023-02-04T05:38:33;94729.44;;;14.00;37.23
45941;BME280;31858;46.008;8.978;2023-02-04T05:48:36;94749.78;;;13.76;37.75
45941;BME280;31858;46.008;8.978;2023-02-04T05:58:39;94749.75;;;13.83;37.91
45941;BME280;31858;46.008;8.978;2023-02-04T06:08:42;94768.88;;;13.82;37.54
45941;BME280;31858;46.008;8.978;2023-02-04T06:18:43;94765.44;;;13.88;37.88
45941;BME280;31858;46.008;8.978;2023-02-04T06:28:46;94755.53;;;13.60;38.16
45941;BME280;31858;46.008;8.978;2023-02-04T06:38:48;94766.63;;;13.59;37.96
45941;BME280;31858;46.008;8.978;2023-02-04T06:48:51;94797.97;;;13.76;37.80
45941;BME280;31858;46.008;8.978;2023-02-04T06:58:52;94783.06;;;13.64;38.21
45941;BME280;31858;46.008;8.978;2023-02-04T07:08:55;94768.94;;;13.43;38.76
45941;BME280;31858;46.008;8.978;2023-02-04T07:18:57;94786.13;;;13.42;39.25
45941;BME280;31858;46.008;8.978;2023-02-04T07:29:00;94799.50;;;13.34;39.36
45941;BME280;31858;46.008;8.978;2023-02-04T07:39:01;94805.63;;;13.49;38.51
45941;BME280;31858;46.008;8.978;2023-02-04T07:49:04;94817.88;;;13.54;39.15
45941;BME280;31858;46.008;8.978;2023-02-04T07:59:06;94811.75;;;13.46;38.65
45941;BME280;31858;46.008;8.978;2023-02-04T08:09:09;94843.88;;;13.57;38.89
45941;BME280;31858;46.008;8.978;2023-02-04T08:19:10;94847.69;;;13.52;39.09
45941;BME280;31858;46.008;8.978;2023-02-04T08:29:19;94844.25;;;13.62;38.97
45941;BME280;31858;46.008;8.978;2023-02-04T08:39:20;94861.09;;;13.77;38.66
45941;BME280;31858;46.008;8.978;2023-02-04T08:49:23;94877.56;;;13.83;38.63
45941;BME280;31858;46.008;8.978;2023-02-04T08:59:27;94876.78;;;13.68;39.12
45941;BME280;31858;46.008;8.978;2023-02-04T09:09:30;94885.56;;;13.65;39.42
45941;BME280;31858;46.008;8.978;2023-02-04T09:19:31;94910.06;;;13.63;39.97
45941;BME280;31858;46.008;8.978;2023-02-04T09:29:34;94923.84;;;13.80;39.07
45941;BME280;31858;46.008;8.978;2023-02-04T09:39:36;94931.50;;;13.92;38.30
45941;BME280;31858;46.008;8.978;2023-02-04T09:49:39;94957.16;;;14.03;38.88
45941;BME280;31858;46.008;8.978;2023-02-04T09:59:41;94971.69;;;14.10;39.06
45941;BME280;31858;46.008;8.978;2023-02-04T10:09:46;94976.69;;;14.25;37.72
45941;BME280;31858;46.008;8.978;2023-02-04T10:19:49;94977.06;;;14.24;38.58
45941;BME280;31858;46.008;8.978;2023-02-04T10:29:58;94983.91;;;14.32;37.38
45941;BME280;31858;46.008;8.978;2023-02-04T10:39:59;94993.13;;;14.49;36.73
45941;BME280;31858;46.008;8.978;2023-02-04T10:50:04;94991.59;;;14.55;37.19
45941;BME280;31858;46.008;8.978;2023-02-04T11:00:15;94998.47;;;14.63;35.98
45941;BME280;31858;46.008;8.978;2023-02-04T11:10:21;94993.09;;;14.74;36.40
45941;BME280;31858;46.008;8.978;2023-02-04T11:20:30;94968.56;;;14.86;36.01
45941;BME280;31858;46.008;8.978;2023-02-04T11:30:33;94986.16;;;14.97;36.76
45941;BME280;31858;46.008;8.978;2023-02-04T11:40:37;94986.53;;;14.99;36.54
45941;BME280;31858;46.008;8.978;2023-02-04T11:50:40;94997.94;;;15.28;35.17
45941;BME280;31858;46.008;8.978;2023-02-04T12:00:42;94990.34;;;15.09;35.58
45941;BME280;31858;46.008;8.978;2023-02-04T12:10:48;94985.25;;;15.32;34.59
45941;BME280;31858;46.008;8.978;2023-02-04T12:20:51;95008.31;;;15.23;36.34
45941;BME280;31858;46.008;8.978;2023-02-04T12:30:54;94987.16;;;15.39;34.66
45941;BME280;31858;46.008;8.978;2023-02-04T12:40:55;94988.28;;;15.42;36.32
45941;BME280;31858;46.008;8.978;2023-02-04T12:50:58;94999.03;;;15.42;34.83
45941;BME280;31858;46.008;8.978;2023-02-04T13:01:00;94999.69;;;15.63;35.01
45941;BME280;31858;46.008;8.978;2023-02-04T13:11:03;94994.00;;;15.54;37.11
45941;BME280;31858;46.008;8.978;2023-02-04T13:21:05;95000.81;;;15.70;34.59
45941;BME280;31858;46.008;8.978;2023-02-04T13:31:08;94988.56;;;15.65;36.30
45941;BME280;31858;46.008;8.978;2023-02-04T13:41:09;94981.47;;;15.96;33.61
45941;BME280;31858;46.008;8.978;2023-02-04T13:51:12;94982.16;;;16.07;35.97
45941;BME280;31858;46.008;8.978;2023-02-04T14:01:14;94999.44;;;16.06;34.27
45941;BME280;31858;46.008;8.978;2023-02-04T14:11:17;94992.47;;;16.16;35.58
45941;BME280;31858;46.008;8.978;2023-02-04T14:21:19;95001.66;;;16.18;35.26
45941;BME280;31858;46.008;8.978;2023-02-04T14:31:22;94998.94;;;16.25;32.39
45941;BME280;31858;46.008;8.978;2023-02-04T14:41:23;95035.00;;;16.28;29.94
45941;BME280;31858;46.008;8.978;2023-02-04T14:51:27;95032.50;;;15.99;31.53
45941;BME280;31858;46.008;8.978;2023-02-04T15:01:28;95032.91;;;15.94;29.06
45941;BME280;31858;46.008;8.978;2023-02-04T15:11:31;95050.34;;;15.61;28.91
45941;BME280;31858;46.008;8.978;2023-02-04T15:21:33;95061.91;;;15.51;27.81
45941;BME280;31858;46.008;8.978;2023-02-04T15:31:36;95070.03;;;15.33;26.90
45941;BME280;31858;46.008;8.978;2023-02-04T15:41:38;95102.28;;;15.09;26.15
45941;BME280;31858;46.008;8.978;2023-02-04T15:51:41;95139.09;;;14.80;25.91
45941;BME280;31858;46.008;8.978;2023-02-04T16:01:43;95118.41;;;14.62;25.74
45941;BME280;31858;46.008;8.978;2023-02-04T16:11:45;95163.91;;;14.34;24.91
45941;BME280;31858;46.008;8.978;2023-02-04T16:21:47;95189.13;;;14.08;25.61
45941;BME280;31858;46.008;8.978;2023-02-04T16:31:50;95206.09;;;13.57;25.70
45941;BME280;31858;46.008;8.978;2023-02-04T16:41:53;95213.09;;;13.21;25.17
45941;BME280;31858;46.008;8.978;2023-02-04T16:51:56;95244.28;;;13.03;25.48
45941;BME280;31858;46.008;8.978;2023-02-04T17:01:57;95258.97;;;12.79;24.99
45941;BME280;31858;46.008;8.978;2023-02-04T17:12:01;95258.72;;;12.54;25.23
45941;BME280;31858;46.008;8.978;2023-02-04T17:22:02;95285.41;;;12.51;25.09
45941;BME280;31858;46.008;8.978;2023-02-04T17:32:05;95313.91;;;12.39;25.21
45941;BME280;31858;46.008;8.978;2023-02-04T17:42:11;95289.38;;;12.30;24.93
45941;BME280;31858;46.008;8.978;2023-02-04T17:52:14;95335.72;;;12.15;24.61
45941;BME280;31858;46.008;8.978;2023-02-04T18:02:23;95350.94;;;12.11;23.39
45941;BME280;31858;46.008;8.978;2023-02-04T18:12:27;95363.78;;;12.02;23.15
45941;BME280;31858;46.008;8.978;2023-02-04T18:22:29;95375.59;;;12.01;22.66
45941;BME280;31858;46.008;8.978;2023-02-04T18:32:35;95375.13;;;11.95;22.98
45941;BME280;31858;46.008;8.978;2023-02-04T18:42:39;95394.19;;;11.94;22.35
45941;BME280;31858;46.008;8.978;2023-02-04T18:52:43;95400.91;;;11.84;22.20
45941;BME280;31858;46.008;8.978;2023-02-04T19:02:47;95402.19;;;11.71;21.55
45941;BME280;31858;46.008;8.978;2023-02-04T19:12:50;95409.22;;;11.79;21.22
45941;BME280;31858;46.008;8.978;2023-02-04T19:22:53;95415.91;;;11.69;20.58
45941;BME280;31858;46.008;8.978;2023-02-04T19:33:01;95422.47;;;11.75;20.35
45941;BME280;31858;46.008;8.978;2023-02-04T19:43:19;95437.28;;;11.69;20.10
45941;BME280;31858;46.008;8.978;2023-02-04T19:53:27;95432.06;;;11.54;20.48
45941;BME280;31858;46.008;8.978;2023-02-04T20:03:35;95448.97;;;11.61;19.39
45941;BME280;31858;46.008;8.978;2023-02-04T20:13:40;95466.88;;;11.61;18.88
45941;BME280;31858;46.008;8.978;2023-02-04T20:23:42;95459.63;;;11.61;18.77
45941;BME280;31858;46.008;8.978;2023-02-04T20:33:47;95476.22;;;11.51;18.80
45941;BME280;31858;46.008;8.978;2023-02-04T20:43:50;95479.53;;;11.44;18.82
45941;BME280;31858;46.008;8.978;2023-02-04T20:53:54;95493.03;;;11.52;17.91
45941;BME280;31858;46.008;8.978;2023-02-04T21:03:57;95507.91;;;11.33;18.99
45941;BME280;31858;46.008;8.978;2023-02-04T21:14:01;95500.63;;;11.30;18.81
45941;BME280;31858;46.008;8.978;2023-02-04T21:24:03;95511.16;;;11.23;18.52
45941;BME280;31858;46.008;8.978;2023-02-04T21:34:06;95516.91;;;11.06;20.23
45941;BME280;31858;46.008;8.978;2023-02-04T21:44:08;95524.72;;;10.79;19.60
45941;BME280;31858;46.008;8.978;2023-02-04T21:54:11;95521.84;;;10.88;19.96
45941;BME280;31858;46.008;8.978;2023-02-04T22:04:12;95523.59;;;10.81;20.23
45941;BME280;31858;46.008;8.978;2023-02-04T22:14:15;95522.94;;;10.68;20.08
45941;BME280;31858;46.008;8.978;2023-02-04T22:24:18;95538.00;;;10.13;38.71
45941;BME280;31858;46.008;8.978;2023-02-04T22:34:21;95539.44;;;8.95;47.46
45941;BME280;31858;46.008;8.978;2023-02-04T22:44:24;95547.09;;;8.24;51.37
45941;BME280;31858;46.008;8.978;2023-02-04T22:54:27;95556.47;;;7.97;61.55
45941;BME280;31858;46.008;8.978;2023-02-04T23:04:29;95560.06;;;7.68;63.47
45941;BME280;31858;46.008;8.978;2023-02-04T23:14:32;95551.38;;;7.46;80.93
45941;BME280;31858;46.008;8.978;2023-02-04T23:24:34;95545.69;;;7.36;82.00
45941;BME280;31858;46.008;8.978;2023-02-04T23:34:37;95556.97;;;7.33;91.73
45941;BME280;31858;46.008;8.978;2023-02-04T23:44:38;95557.88;;;6.95;100.00
45941;BME280;31858;46.008;8.978;2023-02-04T23:54:41;95570.00;;;6.75;100.00
